createdAt,value
2022-11-07T00:02:11.931Z,1.00
2022-11-07T00:07:16.186Z,1.00
2022-11-07T00:12:18.970Z,1.00
2022-11-07T00:17:21.690Z,1.00
2022-11-07T00:22:25.818Z,1.00
2022-11-07T00:27:28.657Z,1.00
2022-11-07T00:32:31.555Z,1.00
2022-11-07T00:37:35.670Z,1.00
2022-11-07T00:42:38.440Z,1.00
2022-11-07T00:47:41.428Z,1.00
2022-11-07T00:52:45.608Z,1.00
2022-11-07T00:57:48.372Z,1.00
2022-11-07T01:03:11.190Z,34.90
2022-11-07T01:08:15.851Z,49.20
2022-11-07T01:13:18.661Z,84.20
2022-11-07T01:18:21.765Z,47.30
2022-11-07T01:23:25.858Z,42.60
2022-11-07T01:28:28.716Z,1.00
2022-11-07T01:33:31.576Z,1.00
2022-11-07T01:38:36.244Z,1.00
2022-11-07T01:43:44.841Z,1.00
2022-11-07T01:48:52.000Z,1.00
2022-11-07T01:53:57.036Z,1.00
2022-11-07T01:59:00.986Z,6.20
2022-11-07T02:04:04.824Z,35.50
2022-11-07T02:09:09.227Z,15.70
2022-11-07T02:14:16.597Z,10.20
2022-11-07T02:19:26.705Z,19.00
2022-11-07T02:24:34.347Z,59.80
2022-11-07T02:29:39.903Z,68.20
2022-11-07T02:34:42.703Z,93.30
2022-11-07T02:39:46.893Z,99.90
2022-11-07T02:44:49.901Z,99.90
2022-11-07T02:49:52.639Z,99.90
2022-11-07T02:54:56.729Z,99.90
2022-11-07T02:59:59.534Z,99.90
2022-11-07T03:05:02.339Z,99.90
2022-11-07T03:10:07.589Z,99.90
2022-11-07T03:15:11.912Z,99.90
2022-11-07T03:20:14.760Z,99.90
2022-11-07T03:25:19.021Z,99.90
2022-11-07T03:30:21.846Z,99.90
2022-11-07T03:35:24.650Z,99.90
2022-11-07T03:40:29.021Z,99.90
2022-11-07T03:45:32.407Z,99.90
2022-11-07T03:50:35.170Z,99.90
2022-11-07T03:55:39.519Z,99.90
2022-11-07T04:00:42.538Z,99.90
2022-11-07T04:05:45.307Z,99.90
2022-11-07T04:10:49.399Z,99.90
2022-11-07T04:16:13.582Z,99.90
2022-11-07T04:21:19.256Z,99.90
2022-11-07T04:26:52.398Z,99.90
2022-11-07T04:31:55.153Z,99.90
2022-11-07T04:36:57.920Z,99.90
2022-11-07T04:42:02.052Z,99.90
2022-11-07T04:47:04.938Z,99.90
2022-11-07T04:52:07.720Z,99.90
2022-11-07T04:57:11.857Z,99.90
2022-11-07T05:02:14.801Z,99.90
2022-11-07T05:07:17.787Z,99.90
2022-11-07T05:12:21.920Z,99.90
2022-11-07T05:17:27.939Z,11.60
2022-11-07T05:22:52.288Z,3.20
2022-11-07T05:27:59.318Z,15.80
2022-11-07T05:33:02.098Z,49.80
2022-11-07T05:38:05.305Z,99.90
2022-11-07T05:43:12.411Z,99.90
2022-11-07T05:48:18.335Z,99.90
2022-11-07T05:53:21.380Z,99.90
2022-11-07T05:58:25.882Z,99.90
2022-11-07T06:03:28.654Z,99.90
2022-11-07T06:08:31.447Z,99.90
2022-11-07T06:13:35.605Z,99.90
2022-11-07T06:18:41.611Z,99.90
2022-11-07T06:23:44.726Z,99.90
2022-11-07T06:28:48.806Z,99.90
2022-11-07T06:33:52.058Z,99.90
2022-11-07T06:38:54.932Z,99.90
2022-11-07T06:43:59.088Z,99.90
2022-11-07T06:49:01.903Z,99.90
2022-11-07T06:54:04.884Z,99.90
2022-11-07T06:59:08.995Z,99.90
2022-11-07T07:04:12.417Z,99.90
2022-11-07T07:09:15.209Z,99.90
2022-11-07T07:14:19.320Z,99.90
2022-11-07T07:19:22.070Z,1.00
2022-11-07T07:24:24.855Z,1.00
2022-11-07T07:29:28.956Z,99.90
2022-11-07T07:34:31.701Z,99.90
2022-11-07T07:39:34.483Z,1.00
2022-11-07T07:44:38.626Z,99.90
2022-11-07T07:49:41.393Z,1.00
2022-11-07T07:54:44.146Z,1.00
2022-11-07T07:59:48.241Z,96.90
2022-11-07T08:04:51.043Z,1.00
2022-11-07T08:09:53.798Z,1.00
2022-11-07T08:14:58.000Z,1.00
2022-11-07T08:20:00.734Z,1.00
2022-11-07T08:25:03.578Z,1.00
2022-11-07T08:30:15.155Z,1.00
2022-11-07T08:35:20.664Z,1.00
2022-11-07T08:40:23.608Z,1.00
2022-11-07T08:45:27.720Z,1.00
2022-11-07T08:50:30.550Z,1.00
2022-11-07T08:55:33.394Z,1.00
2022-11-07T09:00:37.980Z,1.00
2022-11-07T09:05:40.883Z,1.00
2022-11-07T09:10:43.679Z,99.90
2022-11-07T09:15:51.076Z,99.90
2022-11-07T09:20:54.967Z,99.90
2022-11-07T09:25:59.884Z,99.90
2022-11-07T09:31:26.246Z,99.90
2022-11-07T09:42:56.735Z,99.90
2022-11-07T09:48:23.133Z,99.90
2022-11-07T09:53:47.487Z,99.90
2022-11-07T09:59:52.038Z,99.90
2022-11-07T10:05:35.973Z,99.90
2022-11-07T10:11:24.904Z,99.90
2022-11-07T10:17:00.196Z,99.90
2022-11-07T10:23:05.590Z,99.90
2022-11-07T10:29:46.087Z,99.90
2022-11-07T10:35:16.214Z,99.90
2022-11-07T10:41:02.745Z,99.90
2022-11-07T10:46:30.479Z,99.90
2022-11-07T10:51:37.501Z,99.90
2022-11-07T10:56:48.358Z,99.90
2022-11-07T11:01:51.497Z,99.90
2022-11-07T11:06:59.505Z,99.90
2022-11-07T11:12:12.073Z,99.90
2022-11-07T11:17:25.042Z,99.90
2022-11-07T11:22:30.071Z,99.90
2022-11-07T11:27:36.894Z,99.90
2022-11-07T11:32:47.258Z,99.90
2022-11-07T11:38:02.058Z,99.90
2022-11-07T11:43:19.027Z,99.90
2022-11-07T11:48:56.998Z,99.90
2022-11-07T11:54:37.678Z,99.90
2022-11-07T12:07:13.129Z,99.90
2022-11-07T12:13:03.149Z,99.90
2022-11-07T12:18:58.628Z,99.90
2022-11-07T12:24:55.896Z,1.00
2022-11-07T12:30:42.389Z,1.00
2022-11-07T12:36:16.837Z,1.00
2022-11-07T12:42:00.235Z,1.00
2022-11-07T12:47:28.110Z,41.80
2022-11-07T12:52:56.381Z,74.70
2022-11-07T13:04:20.566Z,1.00
2022-11-07T13:10:04.495Z,1.00
2022-11-07T13:15:53.742Z,93.90
2022-11-07T13:21:05.789Z,99.90
2022-11-07T13:26:51.408Z,99.90
2022-11-07T13:32:23.018Z,99.90
2022-11-07T13:38:11.974Z,99.90
2022-11-07T13:50:01.596Z,99.90
2022-11-07T13:56:20.719Z,99.90
2022-11-07T14:02:20.944Z,99.90
2022-11-07T14:08:41.620Z,1.00
2022-11-07T14:20:46.766Z,1.00
2022-11-07T14:26:16.785Z,1.00
2022-11-07T14:32:22.710Z,1.00
2022-11-07T14:37:48.592Z,1.00
2022-11-07T14:43:08.573Z,48.60
2022-11-07T14:48:22.685Z,99.90
2022-11-07T14:53:49.053Z,99.90
2022-11-07T15:05:26.150Z,1.00
2022-11-07T15:10:36.980Z,1.00
2022-11-07T15:16:03.551Z,1.00
2022-11-07T15:21:07.169Z,89.40
2022-11-07T15:26:19.743Z,99.90
2022-11-07T15:31:25.369Z,99.90
2022-11-07T15:36:28.367Z,99.90
2022-11-07T15:41:32.472Z,99.90
2022-11-07T15:46:38.393Z,99.90
2022-11-07T15:51:41.140Z,1.00
2022-11-07T15:56:45.894Z,1.00
2022-11-07T16:01:49.636Z,1.00
2022-11-07T16:06:52.444Z,1.00
2022-11-07T16:11:56.542Z,99.90
2022-11-07T16:16:59.358Z,1.00
2022-11-07T16:22:02.157Z,1.00
2022-11-07T16:27:06.514Z,99.90
2022-11-07T16:32:16.430Z,1.00
2022-11-07T16:37:20.685Z,1.00
2022-11-07T16:42:24.812Z,28.10
2022-11-07T16:47:27.644Z,1.00
2022-11-07T16:52:30.686Z,99.90
2022-11-07T16:57:37.156Z,1.00
2022-11-07T17:02:40.068Z,1.00
2022-11-07T17:07:42.955Z,10.80
2022-11-07T17:12:47.070Z,1.00
2022-11-07T17:17:49.899Z,99.90
2022-11-07T17:22:52.643Z,1.00
2022-11-07T17:27:56.880Z,1.00
2022-11-07T17:32:59.698Z,1.00
2022-11-07T17:38:02.539Z,1.00
2022-11-07T17:43:06.656Z,1.00
2022-11-07T17:48:10.632Z,1.00
2022-11-07T17:53:13.472Z,1.00
2022-11-07T17:58:17.880Z,1.00
2022-11-07T18:03:20.926Z,99.90
2022-11-07T18:08:38.421Z,1.00
2022-11-07T18:13:50.317Z,99.90
2022-11-07T18:18:53.168Z,99.90
2022-11-07T18:23:56.244Z,1.00
2022-11-07T18:29:02.631Z,1.00
2022-11-07T18:34:07.297Z,1.00
2022-11-07T18:39:14.024Z,1.00
2022-11-07T18:44:18.154Z,1.00
2022-11-07T18:49:20.972Z,1.00
2022-11-07T18:54:25.805Z,1.00
2022-11-07T18:59:30.046Z,1.00
2022-11-07T19:04:33.911Z,1.00
2022-11-07T19:09:37.033Z,1.00
2022-11-07T19:14:41.219Z,1.00
2022-11-07T19:19:44.004Z,1.00
2022-11-07T19:24:46.954Z,1.00
2022-11-07T19:29:51.516Z,1.00
2022-11-07T19:34:54.573Z,1.00
2022-11-07T19:39:57.448Z,1.00
2022-11-07T19:45:01.902Z,1.00
2022-11-07T19:50:05.247Z,1.00
2022-11-07T19:55:08.979Z,1.00
2022-11-07T20:00:14.510Z,1.00
2022-11-07T20:05:24.227Z,1.00
2022-11-07T20:10:27.564Z,1.00
2022-11-07T20:15:32.243Z,1.00
2022-11-07T20:20:35.820Z,1.00
2022-11-07T20:25:42.755Z,1.00
2022-11-07T20:30:46.995Z,1.00
2022-11-07T20:35:59.094Z,1.00
2022-11-07T20:41:03.163Z,1.00
2022-11-07T20:46:09.294Z,1.00
2022-11-07T20:51:14.704Z,1.00
2022-11-07T20:56:17.885Z,1.00
2022-11-07T21:01:23.813Z,1.00
2022-11-07T21:06:27.031Z,1.00
2022-11-07T21:11:30.836Z,1.00
2022-11-07T21:16:35.955Z,1.00
2022-11-07T21:21:38.904Z,1.00
2022-11-07T21:26:42.007Z,1.00
2022-11-07T22:25:07.923Z,1.00
2022-11-07T22:30:11.793Z,1.00
2022-11-07T22:35:14.619Z,1.00
2022-11-07T22:40:20.466Z,1.00
2022-11-07T22:45:23.366Z,1.00
2022-11-07T22:50:26.113Z,1.00
2022-11-07T22:55:30.931Z,1.00
2022-11-07T23:00:33.892Z,1.00
2022-11-07T23:05:36.678Z,1.00
2022-11-07T23:10:40.820Z,1.00
2022-11-07T23:15:43.642Z,1.00
2022-11-07T23:21:09.230Z,1.00
2022-11-07T23:26:14.833Z,1.00
2022-11-07T23:31:18.560Z,1.00
2022-11-07T23:36:21.364Z,1.00
2022-11-07T23:41:25.463Z,1.00
2022-11-07T23:46:46.099Z,1.00
2022-11-07T23:51:52.142Z,1.00
2022-11-07T23:56:56.769Z,1.00
